createdAt,value
2019-05-29T00:02:10.110Z,15.30
2019-05-29T00:07:10.123Z,12.20
2019-05-29T00:12:11.909Z,13.70
2019-05-29T00:17:10.528Z,12.50
2019-05-29T00:22:10.273Z,14.10
2019-05-29T00:27:12.572Z,20.10
2019-05-29T00:32:09.351Z,18.00
2019-05-29T00:37:10.415Z,15.80
2019-05-29T00:42:09.267Z,14.50
2019-05-29T00:47:09.524Z,12.60
2019-05-29T00:52:10.031Z,10.10
2019-05-29T00:57:09.132Z,10.10
2019-05-29T01:02:09.596Z,12.10
2019-05-29T01:07:10.155Z,12.60
2019-05-29T01:12:09.012Z,11.70
2019-05-29T01:17:08.923Z,11.60
2019-05-29T01:22:08.881Z,17.60
2019-05-29T01:27:08.810Z,14.90
2019-05-29T01:32:08.734Z,17.40
2019-05-29T01:37:08.670Z,18.90
2019-05-29T01:42:08.597Z,18.50
2019-05-29T01:47:08.622Z,19.60
2019-05-29T01:52:08.540Z,17.00
2019-05-29T01:57:08.446Z,16.70
2019-05-29T02:02:08.384Z,21.30
2019-05-29T02:07:08.343Z,21.40
2019-05-29T02:12:08.274Z,21.80
2019-05-29T02:17:08.225Z,26.50
2019-05-29T02:22:08.289Z,21.30
2019-05-29T02:27:08.242Z,25.50
2019-05-29T02:32:08.158Z,23.40
2019-05-29T02:37:08.044Z,27.90
2019-05-29T02:42:08.038Z,25.80
2019-05-29T02:47:07.927Z,29.00
2019-05-29T02:52:07.940Z,26.40
2019-05-29T02:57:07.909Z,32.10
2019-05-29T03:02:07.852Z,29.10
2019-05-29T03:07:07.780Z,32.80
2019-05-29T03:12:07.698Z,31.70
2019-05-29T03:17:07.598Z,37.80
2019-05-29T03:22:07.601Z,36.00
2019-05-29T03:27:07.501Z,36.60
2019-05-29T03:32:13.736Z,34.80
2019-05-29T03:37:08.378Z,28.40
2019-05-29T03:42:07.289Z,25.90
2019-05-29T03:47:07.247Z,31.10
2019-05-29T03:52:07.256Z,30.00
2019-05-29T03:57:07.183Z,34.50
2019-05-29T04:02:07.111Z,34.20
2019-05-29T04:07:07.041Z,31.30
2019-05-29T04:12:07.084Z,25.90
2019-05-29T04:17:07.021Z,31.70
2019-05-29T04:22:06.936Z,27.20
2019-05-29T04:27:06.872Z,27.30
2019-05-29T04:32:06.800Z,29.80
2019-05-29T04:37:07.529Z,25.80
2019-05-29T04:42:06.647Z,25.10
2019-05-29T04:47:10.822Z,29.10
2019-05-29T04:52:07.569Z,33.50
2019-05-29T04:57:06.474Z,22.90
2019-05-29T05:02:06.473Z,17.70
2019-05-29T05:07:06.413Z,14.70
2019-05-29T05:12:06.320Z,13.30
2019-05-29T05:17:06.282Z,10.30
2019-05-29T05:22:06.219Z,9.10
2019-05-29T05:27:06.180Z,8.80
2019-05-29T05:32:06.224Z,9.80
2019-05-29T05:37:06.107Z,8.00
2019-05-29T05:42:06.069Z,8.70
2019-05-29T05:47:06.003Z,8.40
2019-05-29T05:52:05.918Z,7.60
2019-05-29T05:57:06.010Z,8.30
2019-05-29T06:02:05.905Z,7.30
2019-05-29T06:07:05.819Z,7.20
2019-05-29T06:12:05.762Z,7.60
2019-05-29T06:17:05.682Z,6.70
2019-05-29T06:22:05.570Z,8.80
2019-05-29T06:27:05.518Z,8.40
2019-05-29T06:32:05.504Z,7.90
2019-05-29T06:37:05.430Z,6.90
2019-05-29T06:42:05.369Z,5.60
2019-05-29T06:47:05.339Z,7.50
2019-05-29T06:52:05.266Z,7.00
2019-05-29T06:57:05.237Z,6.30
2019-05-29T07:02:05.301Z,7.40
2019-05-29T07:07:05.253Z,7.70
2019-05-29T07:12:05.066Z,8.20
2019-05-29T07:17:05.120Z,7.50
2019-05-29T07:22:05.083Z,7.80
2019-05-29T07:27:05.042Z,9.60
2019-05-29T07:32:05.058Z,10.90
2019-05-29T07:37:04.958Z,10.00
2019-05-29T07:42:04.837Z,9.30
2019-05-29T07:47:04.812Z,10.30
2019-05-29T07:52:04.841Z,9.40
2019-05-29T07:57:04.654Z,9.40
2019-05-29T08:02:04.669Z,9.20
2019-05-29T08:07:04.609Z,8.30
2019-05-29T08:12:04.535Z,8.10
2019-05-29T08:17:04.544Z,7.80
2019-05-29T08:22:04.492Z,7.30
2019-05-29T08:27:04.403Z,6.50
2019-05-29T08:32:04.354Z,5.10
2019-05-29T08:37:07.341Z,4.10
2019-05-29T08:42:21.914Z,5.30
2019-05-29T08:47:10.645Z,3.50
2019-05-29T08:52:11.551Z,3.50
2019-05-29T08:57:05.087Z,3.20
2019-05-29T09:02:04.080Z,3.70
2019-05-29T09:07:04.017Z,4.30
2019-05-29T09:12:03.939Z,3.90
2019-05-29T09:17:03.932Z,4.00
2019-05-29T09:22:03.854Z,3.90
2019-05-29T09:27:03.812Z,4.50
2019-05-29T09:32:03.787Z,4.40
2019-05-29T09:37:03.823Z,3.70
2019-05-29T09:42:03.715Z,3.70
2019-05-29T09:47:03.643Z,5.00
2019-05-29T09:52:04.171Z,4.20
2019-05-29T09:57:03.556Z,5.90
2019-05-29T10:02:05.897Z,6.00
2019-05-29T10:07:04.917Z,4.70
2019-05-29T10:12:06.606Z,4.20
2019-05-29T10:17:11.006Z,4.30
2019-05-29T10:22:05.549Z,4.00
2019-05-29T10:27:04.855Z,4.30
2019-05-29T10:32:03.398Z,3.60
2019-05-29T10:37:03.364Z,3.40
2019-05-29T10:42:03.213Z,3.90
2019-05-29T10:47:03.112Z,3.90
2019-05-29T10:52:14.724Z,4.90
2019-05-29T10:57:04.035Z,3.40
2019-05-29T11:02:03.118Z,3.90
2019-05-29T11:07:03.036Z,4.40
2019-05-29T11:12:02.922Z,4.20
2019-05-29T11:17:02.858Z,3.30
2019-05-29T11:22:22.871Z,4.00
2019-05-29T11:27:03.798Z,4.10
2019-05-29T11:32:02.730Z,3.90
2019-05-29T11:37:02.666Z,4.20
2019-05-29T11:42:03.144Z,4.00
2019-05-29T11:47:03.002Z,4.20
2019-05-29T11:52:21.641Z,4.40
2019-05-29T11:57:03.547Z,3.90
2019-05-29T12:02:03.342Z,4.20
2019-05-29T12:07:02.527Z,4.50
2019-05-29T12:12:02.431Z,4.50
2019-05-29T12:17:02.720Z,4.90
2019-05-29T12:22:02.781Z,4.90
2019-05-29T12:27:02.687Z,5.00
2019-05-29T12:32:07.449Z,3.30
2019-05-29T12:37:03.896Z,4.10
2019-05-29T12:42:02.172Z,3.50
2019-05-29T12:47:02.270Z,3.70
2019-05-29T12:52:02.548Z,3.80
2019-05-29T12:57:02.366Z,3.60
2019-05-29T13:02:02.680Z,3.70
2019-05-29T13:07:02.571Z,3.80
2019-05-29T13:12:02.668Z,3.50
2019-05-29T13:17:03.071Z,3.70
2019-05-29T13:22:01.848Z,3.20
2019-05-29T13:27:01.924Z,3.70
2019-05-29T13:32:02.565Z,4.00
2019-05-29T13:37:04.772Z,3.80
2019-05-29T13:42:07.316Z,3.90
2019-05-29T13:47:03.929Z,3.40
2019-05-29T13:52:04.511Z,3.20
2019-05-29T13:57:04.200Z,11.80
2019-05-29T14:02:05.822Z,3.60
2019-05-29T14:07:03.233Z,3.50
2019-05-29T14:12:01.448Z,3.40
2019-05-29T14:17:02.570Z,4.50
2019-05-29T14:22:01.356Z,4.80
2019-05-29T14:27:01.655Z,5.10
2019-05-29T14:32:01.267Z,4.50
2019-05-29T14:37:03.206Z,4.80
2019-05-29T14:42:01.743Z,4.30
2019-05-29T14:47:01.839Z,4.70
2019-05-29T14:52:02.451Z,2.70
2019-05-29T14:57:01.177Z,2.90
2019-05-29T15:02:01.003Z,4.50
2019-05-29T15:07:00.999Z,3.70
2019-05-29T15:12:00.968Z,3.20
2019-05-29T15:17:00.883Z,3.40
2019-05-29T15:22:00.852Z,3.20
2019-05-29T15:27:00.859Z,2.70
2019-05-29T15:32:00.852Z,3.10
2019-05-29T15:37:00.691Z,2.90
2019-05-29T15:42:00.642Z,2.80
2019-05-29T15:47:00.602Z,2.30
2019-05-29T15:52:00.652Z,2.30
2019-05-29T15:57:00.554Z,2.30
2019-05-29T16:02:00.535Z,2.50
2019-05-29T16:07:00.563Z,2.40
2019-05-29T16:12:00.390Z,4.20
2019-05-29T16:17:00.318Z,2.40
2019-05-29T16:22:00.216Z,2.50
2019-05-29T16:27:08.300Z,3.80
2019-05-29T16:32:01.132Z,2.70
2019-05-29T16:37:00.122Z,2.90
2019-05-29T16:42:00.053Z,4.10
2019-05-29T16:46:59.982Z,3.60
2019-05-29T16:52:00.050Z,4.20
2019-05-29T16:56:59.877Z,4.40
2019-05-29T17:02:00.028Z,3.80
2019-05-29T17:06:59.772Z,4.00
2019-05-29T17:11:59.870Z,4.00
2019-05-29T17:16:59.671Z,3.00
2019-05-29T17:21:59.632Z,3.80
2019-05-29T17:26:59.626Z,3.60
2019-05-29T17:31:59.774Z,3.10
2019-05-29T17:36:59.570Z,3.40
2019-05-29T17:41:59.521Z,3.50
2019-05-29T17:46:59.428Z,2.80
2019-05-29T17:51:59.465Z,2.70
2019-05-29T17:56:59.320Z,2.70
2019-05-29T18:01:59.286Z,3.60
2019-05-29T18:06:59.378Z,2.90
2019-05-29T18:11:59.259Z,2.80
2019-05-29T18:16:59.250Z,2.70
2019-05-29T18:21:59.094Z,5.50
2019-05-29T18:26:59.396Z,2.30
2019-05-29T18:31:58.988Z,3.40
2019-05-29T18:36:58.916Z,2.60
2019-05-29T18:41:59.091Z,3.20
2019-05-29T18:46:58.934Z,2.90
2019-05-29T18:52:00.409Z,5.00
2019-05-29T18:57:14.556Z,3.70
2019-05-29T19:01:59.663Z,3.80
2019-05-29T19:06:58.595Z,3.90
2019-05-29T19:11:58.604Z,4.90
2019-05-29T19:16:58.539Z,2.90
2019-05-29T19:21:58.455Z,4.40
2019-05-29T19:26:58.436Z,6.60
2019-05-29T19:31:58.386Z,5.40
2019-05-29T19:36:58.295Z,4.60
2019-05-29T19:41:58.219Z,6.10
2019-05-29T19:46:58.271Z,4.50
2019-05-29T19:51:58.155Z,3.80
2019-05-29T19:56:58.056Z,4.10
2019-05-29T20:01:59.036Z,4.00
2019-05-29T20:06:57.978Z,5.90
2019-05-29T20:11:57.922Z,4.20
2019-05-29T20:16:57.936Z,7.70
2019-05-29T20:21:57.880Z,7.00
2019-05-29T20:26:57.725Z,4.80
2019-05-29T20:31:57.671Z,4.90
2019-05-29T20:36:57.618Z,5.60
2019-05-29T20:41:57.600Z,5.80
2019-05-29T20:46:57.583Z,5.10
2019-05-29T20:51:57.462Z,6.90
2019-05-29T20:56:57.484Z,7.30
2019-05-29T21:01:57.366Z,6.80
2019-05-29T21:06:57.277Z,7.50
2019-05-29T21:11:57.313Z,4.40
2019-05-29T21:16:58.275Z,5.70
2019-05-29T21:21:58.137Z,5.60
2019-05-29T21:26:59.106Z,5.40
2019-05-29T21:31:57.093Z,8.40
2019-05-29T21:36:57.059Z,7.20
2019-05-29T21:41:56.979Z,7.30
2019-05-29T21:46:57.981Z,5.80
2019-05-29T21:51:56.826Z,5.50
2019-05-29T21:56:56.815Z,5.80
2019-05-29T22:01:56.746Z,5.20
2019-05-29T22:06:56.658Z,5.00
2019-05-29T22:11:56.640Z,5.70
2019-05-29T22:16:57.089Z,5.10
2019-05-29T22:21:57.115Z,4.50
2019-05-29T22:26:57.308Z,5.40
2019-05-29T22:31:57.512Z,4.70
2019-05-29T22:36:57.476Z,4.30
2019-05-29T22:41:57.538Z,3.90
2019-05-29T22:46:56.222Z,4.00
2019-05-29T22:51:56.348Z,4.20
2019-05-29T22:56:56.439Z,3.60
2019-05-29T23:01:56.431Z,3.70
2019-05-29T23:06:56.418Z,3.40
2019-05-29T23:11:56.305Z,3.30
2019-05-29T23:16:56.466Z,3.30
2019-05-29T23:21:56.545Z,4.00
2019-05-29T23:26:56.668Z,3.50
2019-05-29T23:31:56.843Z,3.50
2019-05-29T23:36:57.040Z,3.10
2019-05-29T23:41:55.856Z,2.80
2019-05-29T23:46:55.658Z,3.00
2019-05-29T23:51:55.592Z,2.70
2019-05-29T23:56:55.828Z,2.90
